createdAt,value
2023-07-24T00:02:18.623Z,59.88
2023-07-24T00:04:45.458Z,59.93
2023-07-24T00:07:12.168Z,60.05
2023-07-24T00:09:38.853Z,60.43
2023-07-24T00:12:05.946Z,60.37
2023-07-24T00:14:32.621Z,60.25
2023-07-24T00:16:59.330Z,60.31
2023-07-24T00:19:25.990Z,60.22
2023-07-24T00:21:52.747Z,60.48
2023-07-24T00:24:19.580Z,60.61
2023-07-24T00:26:46.229Z,60.75
2023-07-24T00:29:13.006Z,60.75
2023-07-24T00:31:39.674Z,60.74
2023-07-24T00:34:06.323Z,60.90
2023-07-24T00:36:33.115Z,60.92
2023-07-24T00:38:59.900Z,61.31
2023-07-24T00:41:26.570Z,61.23
2023-07-24T00:43:53.219Z,61.44
2023-07-24T00:46:19.908Z,61.57
2023-07-24T00:48:46.530Z,61.78
2023-07-24T00:51:13.234Z,61.39
2023-07-24T00:53:40.107Z,61.63
2023-07-24T00:56:06.720Z,61.96
2023-07-24T00:58:34.398Z,61.80
2023-07-24T01:01:01.196Z,61.78
2023-07-24T01:03:35.448Z,61.79
2023-07-24T01:06:05.266Z,62.29
2023-07-24T01:08:31.955Z,62.11
2023-07-24T01:11:00.620Z,61.94
2023-07-24T01:13:27.278Z,61.66
2023-07-24T01:16:04.278Z,61.89
2023-07-24T01:18:31.450Z,62.28
2023-07-24T01:20:58.571Z,61.46
2023-07-24T01:23:44.068Z,61.74
2023-07-24T01:26:10.751Z,61.83
2023-07-24T01:28:37.512Z,61.70
2023-07-24T01:31:04.351Z,62.07
2023-07-24T01:33:32.886Z,61.71
2023-07-24T01:36:00.328Z,61.70
2023-07-24T01:38:26.975Z,61.51
2023-07-24T01:40:56.666Z,62.40
2023-07-24T01:43:23.398Z,63.25
2023-07-24T01:45:50.292Z,63.29
2023-07-24T01:48:17.332Z,64.13
2023-07-24T01:50:44.048Z,64.04
2023-07-24T01:53:11.100Z,64.82
2023-07-24T01:55:37.773Z,64.63
2023-07-24T01:58:04.439Z,65.90
2023-07-24T02:00:31.080Z,65.61
2023-07-24T02:02:57.892Z,65.41
2023-07-24T02:05:24.656Z,65.25
2023-07-24T02:07:51.370Z,64.89
2023-07-24T02:10:18.097Z,65.22
2023-07-24T02:12:46.052Z,66.23
2023-07-24T02:15:12.709Z,65.88
2023-07-24T02:17:40.124Z,65.51
2023-07-24T02:20:07.361Z,65.44
2023-07-24T02:22:34.047Z,65.56
2023-07-24T02:25:00.926Z,65.82
2023-07-24T02:27:28.840Z,65.70
2023-07-24T02:29:58.291Z,66.01
2023-07-24T02:32:24.985Z,65.76
2023-07-24T02:34:52.151Z,65.98
2023-07-24T02:37:19.024Z,67.12
2023-07-24T02:39:45.969Z,67.22
2023-07-24T02:42:12.722Z,67.41
2023-07-24T02:44:39.421Z,67.26
2023-07-24T02:47:06.140Z,67.56
2023-07-24T02:49:33.087Z,68.16
2023-07-24T02:51:59.750Z,68.73
2023-07-24T02:54:27.469Z,69.17
2023-07-24T02:56:54.244Z,68.24
2023-07-24T02:59:20.940Z,68.33
2023-07-24T03:01:47.637Z,68.19
2023-07-24T03:04:14.330Z,68.28
2023-07-24T03:06:41.402Z,67.67
2023-07-24T03:09:08.225Z,67.37
2023-07-24T03:11:34.885Z,67.20
2023-07-24T03:14:01.596Z,67.46
2023-07-24T03:16:28.568Z,67.06
2023-07-24T03:18:55.536Z,67.53
2023-07-24T03:21:22.200Z,67.20
2023-07-24T03:23:48.832Z,68.05
2023-07-24T03:26:15.566Z,67.45
2023-07-24T03:28:42.375Z,68.16
2023-07-24T03:31:09.176Z,68.68
2023-07-24T03:33:36.242Z,67.88
2023-07-24T03:36:02.887Z,68.37
2023-07-24T03:38:29.563Z,67.76
2023-07-24T03:40:56.255Z,68.22
2023-07-24T03:43:23.142Z,68.31
2023-07-24T03:45:49.855Z,67.98
2023-07-24T03:48:16.520Z,67.82
2023-07-24T03:50:43.169Z,68.06
2023-07-24T03:53:09.915Z,67.57
2023-07-24T03:55:36.877Z,67.28
2023-07-24T03:58:03.643Z,66.91
2023-07-24T04:00:30.297Z,67.01
2023-07-24T04:02:57.082Z,67.03
2023-07-24T04:05:23.768Z,66.64
2023-07-24T04:07:50.656Z,66.53
2023-07-24T04:10:17.398Z,66.51
2023-07-24T04:12:44.063Z,66.05
2023-07-24T04:15:10.854Z,66.43
2023-07-24T04:17:37.554Z,65.94
2023-07-24T04:20:04.997Z,65.61
2023-07-24T04:22:31.655Z,65.96
2023-07-24T04:24:58.288Z,66.32
2023-07-24T04:27:24.951Z,65.88
2023-07-24T04:29:51.593Z,66.39
2023-07-24T04:32:18.284Z,65.93
2023-07-24T04:34:44.986Z,65.69
2023-07-24T04:37:11.602Z,65.33
2023-07-24T04:39:41.346Z,65.61
2023-07-24T04:42:08.099Z,65.09
2023-07-24T04:44:34.737Z,65.28
2023-07-24T04:47:02.906Z,65.44
2023-07-24T04:49:31.073Z,65.21
2023-07-24T04:51:57.724Z,64.94
2023-07-24T04:54:24.423Z,64.88
2023-07-24T04:56:51.205Z,64.45
2023-07-24T04:59:18.027Z,63.78
2023-07-24T05:01:52.042Z,61.67
2023-07-24T05:04:19.773Z,58.22
2023-07-24T05:06:46.475Z,55.11
2023-07-24T05:09:13.192Z,51.00
2023-07-24T05:11:40.388Z,46.80
2023-07-24T05:14:07.082Z,42.04
2023-07-24T05:16:33.995Z,39.10
2023-07-24T05:19:00.948Z,37.70
2023-07-24T05:21:27.620Z,35.51
2023-07-24T05:23:54.265Z,33.07
2023-07-24T05:26:21.000Z,31.88
2023-07-24T05:28:47.650Z,30.50
2023-07-24T05:31:14.677Z,29.63
2023-07-24T05:33:41.417Z,29.59
2023-07-24T05:36:08.104Z,28.43
2023-07-24T05:38:34.766Z,28.38
2023-07-24T05:41:03.048Z,29.08
2023-07-24T05:43:29.999Z,29.26
2023-07-24T05:45:57.516Z,29.89
2023-07-24T05:48:24.347Z,30.52
2023-07-24T05:50:51.022Z,30.95
2023-07-24T05:53:18.068Z,30.10
2023-07-24T05:55:44.804Z,29.19
2023-07-24T05:58:11.502Z,27.90
2023-07-24T06:00:38.227Z,26.60
2023-07-24T06:03:07.834Z,25.34
2023-07-24T06:05:35.124Z,23.99
2023-07-24T06:08:01.759Z,24.19
2023-07-24T06:10:28.407Z,23.60
2023-07-24T06:12:55.076Z,21.53
2023-07-24T06:15:22.014Z,20.78
2023-07-24T06:17:50.907Z,20.84
2023-07-24T06:20:19.140Z,21.17
2023-07-24T06:22:45.976Z,21.35
2023-07-24T06:25:12.694Z,21.07
2023-07-24T06:27:39.438Z,19.98
2023-07-24T06:30:15.295Z,19.71
2023-07-24T06:32:42.865Z,19.88
2023-07-24T06:35:09.691Z,19.23
2023-07-24T06:37:36.383Z,19.12
2023-07-24T06:40:03.418Z,19.36
2023-07-24T06:42:30.079Z,18.83
2023-07-24T06:44:56.763Z,18.42
2023-07-24T06:47:23.439Z,18.17
2023-07-24T06:49:50.164Z,18.11
2023-07-24T06:52:16.817Z,18.47
2023-07-24T06:54:43.461Z,17.11
2023-07-24T06:57:10.678Z,16.12
2023-07-24T06:59:37.889Z,16.47
2023-07-24T07:02:04.870Z,17.50
2023-07-24T07:04:31.548Z,17.37
2023-07-24T07:06:58.239Z,17.19
2023-07-24T07:09:24.969Z,17.67
2023-07-24T07:11:51.673Z,18.87
2023-07-24T07:14:18.330Z,20.50
2023-07-24T07:16:45.674Z,22.35
2023-07-24T07:19:12.482Z,23.96
2023-07-24T07:21:39.133Z,24.78
2023-07-24T07:24:06.158Z,24.99
2023-07-24T07:26:32.976Z,26.67
2023-07-24T07:28:59.993Z,27.67
2023-07-24T07:31:26.755Z,28.14
2023-07-24T07:33:53.410Z,28.63
2023-07-24T07:36:20.071Z,29.32
2023-07-24T07:38:46.872Z,30.94
2023-07-24T07:41:13.636Z,31.69
2023-07-24T07:43:40.437Z,32.26
2023-07-24T07:46:07.128Z,31.61
2023-07-24T07:48:34.170Z,32.16
2023-07-24T07:51:00.838Z,31.95
2023-07-24T07:53:27.755Z,31.25
2023-07-24T07:55:58.331Z,32.03
2023-07-24T07:58:25.316Z,32.08
2023-07-24T08:00:52.072Z,30.79
2023-07-24T08:03:19.185Z,31.99
2023-07-24T08:05:45.984Z,31.81
2023-07-24T08:08:12.661Z,31.90
2023-07-24T08:10:39.852Z,32.00
2023-07-24T08:13:06.776Z,32.20
2023-07-24T08:15:37.387Z,32.49
2023-07-24T08:18:07.219Z,32.56
2023-07-24T08:20:36.058Z,31.54
2023-07-24T08:23:02.743Z,31.86
2023-07-24T08:25:29.442Z,32.11
2023-07-24T08:28:05.410Z,32.07
2023-07-24T08:30:33.363Z,32.15
2023-07-24T08:33:00.583Z,31.98
2023-07-24T08:35:27.463Z,31.72
2023-07-24T08:37:54.247Z,32.12
2023-07-24T08:40:21.351Z,31.33
2023-07-24T08:42:50.269Z,31.17
2023-07-24T08:45:17.175Z,30.79
2023-07-24T08:47:47.508Z,31.00
2023-07-24T08:50:16.021Z,30.69
2023-07-24T08:52:44.086Z,30.07
2023-07-24T08:55:10.863Z,30.38
2023-07-24T08:57:42.819Z,30.52
2023-07-24T09:00:10.019Z,30.09
2023-07-24T09:02:36.960Z,30.09
2023-07-24T09:05:04.998Z,29.37
2023-07-24T09:07:32.440Z,30.51
2023-07-24T09:09:59.309Z,30.16
2023-07-24T09:12:26.027Z,30.46
2023-07-24T09:15:06.682Z,30.67
2023-07-24T09:17:33.807Z,29.69
2023-07-24T09:20:01.326Z,30.70
2023-07-24T09:22:28.168Z,29.39
2023-07-24T09:24:56.416Z,28.65
2023-07-24T09:27:26.534Z,29.65
2023-07-24T09:29:53.357Z,30.42
2023-07-24T09:32:24.018Z,30.67
2023-07-24T09:34:57.518Z,31.66
2023-07-24T09:37:28.528Z,31.25
2023-07-24T09:39:55.295Z,30.20
2023-07-24T09:42:36.008Z,28.71
2023-07-24T09:45:06.562Z,28.81
2023-07-24T09:47:55.123Z,29.63
2023-07-24T09:50:19.918Z,29.71
2023-07-24T09:52:46.618Z,29.79
2023-07-24T09:55:16.852Z,29.90
2023-07-24T09:57:43.629Z,29.27
2023-07-24T10:00:10.993Z,31.32
2023-07-24T10:02:37.710Z,31.06
2023-07-24T10:05:04.600Z,30.18
2023-07-24T10:07:31.290Z,29.92
2023-07-24T10:09:57.942Z,30.13
2023-07-24T10:12:24.675Z,30.59
2023-07-24T10:14:51.368Z,30.79
2023-07-24T10:17:46.083Z,29.80
2023-07-24T10:20:13.217Z,30.74
2023-07-24T10:22:43.311Z,29.74
2023-07-24T10:25:10.960Z,28.63
2023-07-24T10:27:42.775Z,28.11
2023-07-24T10:30:19.255Z,29.15
2023-07-24T10:32:56.262Z,29.54
2023-07-24T10:35:24.254Z,29.86
2023-07-24T10:38:00.160Z,30.51
2023-07-24T10:40:26.907Z,30.53
2023-07-24T10:43:10.048Z,31.49
2023-07-24T10:45:51.382Z,32.14
2023-07-24T10:48:18.869Z,32.29
2023-07-24T10:50:50.080Z,33.36
2023-07-24T10:53:20.461Z,33.53
2023-07-24T10:55:52.100Z,33.89
2023-07-24T10:58:18.823Z,34.38
2023-07-24T11:00:45.670Z,35.04
2023-07-24T11:03:12.887Z,35.05
2023-07-24T11:05:43.465Z,35.55
2023-07-24T11:08:16.762Z,35.97
2023-07-24T11:10:48.100Z,36.42
2023-07-24T11:13:15.693Z,37.10
2023-07-24T11:15:42.484Z,37.16
2023-07-24T11:18:09.629Z,36.84
2023-07-24T11:20:40.255Z,37.76
2023-07-24T11:23:07.138Z,38.53
2023-07-24T11:25:34.090Z,37.43
2023-07-24T11:28:00.965Z,37.77
2023-07-24T11:30:27.782Z,37.97
2023-07-24T11:32:54.508Z,39.13
2023-07-24T11:35:22.691Z,38.29
2023-07-24T11:37:49.364Z,38.62
2023-07-24T11:40:16.848Z,37.31
2023-07-24T11:42:44.924Z,37.33
2023-07-24T11:45:11.806Z,37.07
2023-07-24T11:47:49.920Z,36.48
2023-07-24T11:50:17.298Z,36.34
2023-07-24T11:52:50.245Z,36.90
2023-07-24T11:55:35.468Z,36.19
2023-07-24T11:58:02.687Z,36.05
2023-07-24T12:00:29.507Z,36.25
2023-07-24T12:03:02.888Z,36.67
2023-07-24T12:05:29.739Z,36.01
2023-07-24T12:07:56.636Z,35.33
2023-07-24T12:10:28.915Z,35.34
2023-07-24T12:12:56.151Z,34.66
2023-07-24T12:15:23.041Z,34.52
2023-07-24T12:17:49.722Z,34.27
2023-07-24T12:20:16.505Z,34.57
2023-07-24T12:22:43.243Z,34.35
2023-07-24T12:25:10.056Z,34.12
2023-07-24T12:27:36.933Z,34.31
2023-07-24T12:30:04.184Z,33.36
2023-07-24T12:32:30.845Z,33.51
2023-07-24T12:34:57.568Z,35.20
2023-07-24T12:37:24.203Z,33.55
2023-07-24T12:39:50.874Z,34.44
2023-07-24T12:42:17.502Z,33.33
2023-07-24T12:44:44.471Z,34.38
2023-07-24T12:47:11.914Z,33.52
2023-07-24T12:49:38.751Z,33.59
2023-07-24T12:52:06.158Z,33.07
2023-07-24T12:54:37.245Z,34.24
2023-07-24T12:57:13.354Z,33.76
2023-07-24T12:59:40.125Z,34.11
2023-07-24T13:02:07.749Z,34.14
2023-07-24T13:04:34.412Z,34.06
2023-07-24T13:07:01.487Z,34.93
2023-07-24T13:09:28.800Z,33.96
2023-07-24T13:11:55.692Z,32.95
2023-07-24T13:14:22.519Z,33.93
2023-07-24T13:16:49.275Z,33.05
2023-07-24T13:19:20.449Z,33.00
2023-07-24T13:21:48.269Z,32.79
2023-07-24T13:24:15.318Z,32.33
2023-07-24T13:26:42.097Z,32.99
2023-07-24T13:29:08.842Z,33.50
2023-07-24T13:31:36.246Z,34.56
2023-07-24T13:34:03.446Z,32.57
2023-07-24T13:36:30.405Z,33.71
2023-07-24T13:39:00.827Z,33.07
2023-07-24T13:41:27.516Z,33.74
2023-07-24T13:43:55.510Z,33.97
2023-07-24T13:46:23.490Z,33.48
2023-07-24T13:48:50.190Z,33.97
2023-07-24T13:51:16.862Z,34.55
2023-07-24T13:53:43.553Z,33.89
2023-07-24T13:56:10.867Z,33.20
2023-07-24T13:58:37.674Z,33.57
2023-07-24T14:01:04.362Z,34.00
2023-07-24T14:03:31.162Z,33.61
2023-07-24T14:05:58.944Z,34.76
2023-07-24T14:08:26.008Z,33.34
2023-07-24T14:10:52.739Z,33.02
2023-07-24T14:13:23.594Z,33.78
2023-07-24T14:15:50.455Z,33.29
2023-07-24T14:18:17.363Z,33.29
2023-07-24T14:20:44.241Z,33.42
2023-07-24T14:23:11.011Z,33.07
2023-07-24T14:25:37.697Z,32.79
2023-07-24T14:28:04.659Z,33.58
2023-07-24T14:30:31.322Z,33.81
2023-07-24T14:32:58.008Z,33.18
2023-07-24T14:35:24.825Z,34.40
2023-07-24T14:37:51.532Z,34.98
2023-07-24T14:40:18.334Z,35.08
2023-07-24T14:42:45.069Z,34.77
2023-07-24T14:45:11.800Z,34.44
2023-07-24T14:47:38.520Z,34.90
2023-07-24T14:50:05.767Z,32.90
2023-07-24T14:52:32.444Z,32.61
2023-07-24T14:54:59.091Z,33.75
2023-07-24T14:57:26.440Z,33.23
2023-07-24T14:59:53.798Z,33.62
2023-07-24T15:02:20.577Z,34.04
2023-07-24T15:04:47.302Z,33.97
2023-07-24T15:07:13.978Z,33.21
2023-07-24T15:09:40.694Z,33.40
2023-07-24T15:12:07.708Z,34.25
2023-07-24T15:14:34.464Z,33.93
2023-07-24T15:17:01.128Z,33.54
2023-07-24T15:19:27.906Z,33.63
2023-07-24T15:21:54.602Z,33.73
2023-07-24T15:24:21.260Z,34.04
2023-07-24T15:26:48.224Z,34.35
2023-07-24T15:29:19.674Z,34.20
2023-07-24T15:31:46.919Z,33.99
2023-07-24T15:34:13.733Z,34.42
2023-07-24T15:36:40.433Z,34.45
2023-07-24T15:39:07.159Z,34.83
2023-07-24T15:41:34.011Z,35.08
2023-07-24T15:44:00.776Z,34.84
2023-07-24T15:46:30.150Z,34.87
2023-07-24T15:48:57.532Z,35.64
2023-07-24T15:51:24.839Z,35.34
2023-07-24T15:53:51.503Z,35.74
2023-07-24T15:56:18.180Z,35.85
2023-07-24T15:58:44.858Z,35.97
2023-07-24T16:01:11.938Z,36.20
2023-07-24T16:03:38.891Z,36.59
2023-07-24T16:06:06.342Z,36.74
2023-07-24T16:08:33.063Z,36.90
2023-07-24T16:10:59.747Z,36.93
2023-07-24T16:13:26.720Z,37.37
2023-07-24T16:15:53.715Z,37.69
2023-07-24T16:18:24.504Z,37.89
2023-07-24T16:20:51.336Z,38.15
2023-07-24T16:23:18.103Z,38.73
